Time;durP1;ratioP1;P1;durP2;ratioP2;P2;SDS_P1;SDS_P2;PMS_P1;PMS_P2;Temp;Humidity;BMP_temperature;BMP_pressure;BME280_temperature;BME280_humidity;BME280_pressure;Samples;Min_cycle;Max_cycle;Signal;HPM_P1;HPM_P2
2023/08/09 00:02:03;;;;;;;3.80;1.70;;;;;;;20.47;100.00;99751.80;105572;1270;73226;-67
2023/08/09 00:04:31;;;;;;;3.80;1.70;;;;;;;20.43;100.00;99750.09;105650;1255;65754;-62
2023/08/09 00:06:58;;;;;;;4.60;2.00;;;;;;;20.40;100.00;99743.79;105732;1254;72699;-61
2023/08/09 00:09:27;;;;;;;2.70;1.60;;;;;;;20.36;100.00;99748.48;105675;1260;59681;-60
2023/08/09 00:17:58;;;;;;;3.50;1.60;;;;;;;20.30;100.00;99742.43;102166;1291;600143;-62
2023/08/09 00:20:26;;;;;;;2.90;1.80;;;;;;;20.26;100.00;99742.95;104833;1270;59280;-62
2023/08/09 00:22:54;;;;;;;3.50;1.70;;;;;;;20.23;100.00;99747.98;104616;1267;59807;-61
2023/08/09 00:25:21;;;;;;;3.20;1.80;;;;;;;20.21;100.00;99747.06;104925;1266;72298;-61
2023/08/09 00:27:49;;;;;;;3.70;1.60;;;;;;;20.18;100.00;99748.99;104738;1270;67121;-62
2023/08/09 00:30:17;;;;;;;3.60;2.30;;;;;;;20.16;100.00;99750.23;104855;1270;72696;-61
2023/08/09 00:32:45;;;;;;;4.50;1.90;;;;;;;20.14;100.00;99754.27;104907;1267;216945;-62
2023/08/09 00:35:13;;;;;;;3.50;2.00;;;;;;;20.12;100.00;99754.33;105212;1264;58880;-66
2023/08/09 00:37:42;;;;;;;3.30;2.00;;;;;;;20.11;100.00;99757.39;104828;1263;70940;-61
2023/08/09 00:40:13;;;;;;;3.90;2.20;;;;;;;20.09;100.00;99756.27;105141;1264;66924;-61
2023/08/09 00:42:41;;;;;;;;;;;;;;;20.08;100.00;99758.13;105029;1264;72496;-62
2023/08/09 00:45:09;;;;;;;5.50;1.70;;;;;;;20.06;100.00;99759.21;104823;1263;60056;-63
2023/08/09 00:47:37;;;;;;;4.30;1.60;;;;;;;20.02;100.00;99759.09;104882;1264;59599;-61
2023/08/09 00:50:06;;;;;;;3.60;1.50;;;;;;;19.99;100.00;99762.83;104920;1268;71802;-62
2023/08/09 00:52:34;;;;;;;3.10;1.60;;;;;;;19.95;100.00;99761.69;104914;1264;65690;-61
2023/08/09 00:55:04;;;;;;;2.50;1.60;;;;;;;19.94;100.00;99761.53;105071;1264;71723;-63
2023/08/09 00:57:32;;;;;;;3.30;1.70;;;;;;;19.93;100.00;99764.29;105056;1267;60672;-61
2023/08/09 00:59:59;;;;;;;4.00;2.00;;;;;;;19.92;100.00;99769.03;104908;1263;60082;-67
2023/08/09 01:02:28;;;;;;;5.50;1.60;;;;;;;19.92;100.00;99777.50;104968;1264;72924;-63
2023/08/09 01:04:57;;;;;;;6.40;2.00;;;;;;;19.92;100.00;99782.05;104816;1269;66858;-63
2023/08/09 01:07:40;;;;;;;5.30;1.80;;;;;;;19.92;100.00;99783.21;104752;1264;72753;-61
2023/08/09 01:10:15;;;;;;;3.80;1.60;;;;;;;19.92;100.00;99784.48;104953;1263;60597;-62
2023/08/09 01:12:49;;;;;;;3.80;1.90;;;;;;;19.90;100.00;99783.25;104779;1265;59509;-67
2023/08/09 01:15:18;;;;;;;6.20;2.40;;;;;;;19.90;100.00;99785.80;104642;1264;71824;-62
2023/08/09 01:17:48;;;;;;;4.50;1.50;;;;;;;19.90;100.00;99793.20;104963;1264;66924;-61
2023/08/09 01:20:16;;;;;;;3.30;1.80;;;;;;;19.90;100.00;99796.59;104910;1264;72793;-64
2023/08/09 01:22:49;;;;;;;6.40;2.30;;;;;;;19.89;100.00;99796.07;105481;1255;59707;-61
2023/08/09 01:25:16;;;;;;;5.20;2.10;;;;;;;19.88;100.00;99795.67;105539;1254;59647;-66
2023/08/09 01:27:44;;;;;;;4.90;1.30;;;;;;;19.88;100.00;99795.20;105659;1251;72156;-61
2023/08/09 01:30:13;;;;;;;2.80;1.40;;;;;;;19.87;100.00;99795.40;105817;1251;65653;-62
2023/08/09 01:32:41;;;;;;;2.80;1.30;;;;;;;19.82;100.00;99798.08;106020;1251;72736;-61
2023/08/09 01:35:09;;;;;;;4.40;1.50;;;;;;;19.78;100.00;99801.76;105659;1252;59682;-65
2023/08/09 01:37:46;;;;;;;2.70;1.50;;;;;;;19.73;100.00;99804.47;105450;1251;60061;-61
2023/08/09 01:40:15;;;;;;;4.20;1.70;;;;;;;19.67;100.00;99812.36;105803;1257;73101;-61
2023/08/09 01:42:43;;;;;;;4.60;2.20;;;;;;;19.63;100.00;99827.02;109209;1251;65491;-61
2023/08/09 01:45:11;;;;;;;3.40;2.20;;;;;;;19.55;100.00;99839.42;109303;1251;72677;-62
2023/08/09 01:47:40;;;;;;;4.10;1.80;;;;;;;19.47;100.00;99851.77;109254;1254;59485;-63
2023/08/09 01:50:19;;;;;;;4.90;1.60;;;;;;;19.42;100.00;99855.22;109294;1251;58773;-63
2023/08/09 01:52:47;;;;;;;4.80;2.20;;;;;;;19.40;100.00;99854.09;109323;1251;73125;-61
2023/08/09 01:55:17;;;;;;;3.50;1.70;;;;;;;19.38;100.00;99855.92;109363;1251;65867;-59
2023/08/09 01:57:46;;;;;;;3.50;2.10;;;;;;;19.37;100.00;99851.85;109195;1253;71402;-63
2023/08/09 02:00:19;;;;;;;3.40;1.80;;;;;;;19.36;100.00;99859.83;109200;1251;60488;-59
2023/08/09 02:02:47;;;;;;;4.00;1.70;;;;;;;19.34;100.00;99862.39;109190;1251;58833;-64
2023/08/09 02:05:15;;;;;;;4.00;1.90;;;;;;;19.34;100.00;99858.27;109308;1251;73056;-59
2023/08/09 02:07:43;;;;;;;3.60;1.90;;;;;;;19.35;100.00;99855.37;109173;1251;67560;-61
2023/08/09 02:10:11;;;;;;;4.20;2.30;;;;;;;19.35;100.00;99855.58;109300;1251;73307;-59
2023/08/09 02:12:39;;;;;;;4.00;2.30;;;;;;;19.34;100.00;99862.92;109264;1251;60492;-63
2023/08/09 02:15:07;;;;;;;7.30;2.30;;;;;;;19.32;100.00;99870.98;109299;1252;60031;-59
2023/08/09 02:17:34;;;;;;;8.60;2.80;;;;;;;19.30;100.00;99876.04;109346;1251;71820;-65
2023/08/09 02:20:04;;;;;;;4.50;2.20;;;;;;;19.31;100.00;99880.91;109331;1251;66883;-60
2023/08/09 02:22:39;;;;;;;3.10;1.90;;;;;;;19.29;100.00;99882.12;109281;1252;72798;-61
2023/08/09 02:25:07;;;;;;;4.00;2.10;;;;;;;19.26;100.00;99880.45;109301;1251;57945;-60
2023/08/09 02:27:35;;;;;;;3.40;1.80;;;;;;;19.24;100.00;99888.72;109151;1251;58895;-60
2023/08/09 02:30:03;;;;;;;7.70;2.20;;;;;;;19.20;100.00;99895.39;109201;1250;72799;-60
2023/08/09 02:32:31;;;;;;;5.30;2.30;;;;;;;19.20;100.00;99896.91;109262;1252;65753;-62
2023/08/09 02:34:59;;;;;;;4.30;2.50;;;;;;;19.20;100.00;99899.61;109309;1252;72719;-60
2023/08/09 02:37:27;;;;;;;4.10;2.60;;;;;;;19.24;100.00;99900.87;109331;1253;60110;-61
2023/08/09 02:39:55;;;;;;;5.40;2.20;;;;;;;19.27;100.00;99894.24;109267;1251;58754;-65
2023/08/09 02:42:23;;;;;;;5.40;2.70;;;;;;;19.30;100.00;99896.02;109278;1251;72409;-63
2023/08/09 02:44:51;;;;;;;5.10;2.40;;;;;;;19.33;100.00;99892.62;109370;1251;66933;-60
2023/08/09 02:47:19;;;;;;;4.40;2.50;;;;;;;19.36;100.00;99893.34;109286;1251;71699;-60
2023/08/09 02:49:46;;;;;;;4.40;2.10;;;;;;;19.39;100.00;99896.10;109315;1251;59010;-59
2023/08/09 02:52:14;;;;;;;3.80;2.40;;;;;;;19.41;100.00;99901.48;109224;1251;59102;-64
2023/08/09 02:54:43;;;;;;;5.40;2.40;;;;;;;19.43;100.00;99898.83;109301;1251;72001;-62
2023/08/09 02:57:11;;;;;;;4.70;2.40;;;;;;;19.44;100.00;99900.71;109327;1251;65279;-60
2023/08/09 02:59:39;;;;;;;7.30;3.30;;;;;;;19.47;100.00;99904.05;109295;1251;72712;-61
2023/08/09 03:02:07;;;;;;;5.90;3.30;;;;;;;19.49;100.00;99900.29;109153;1251;60124;-64
2023/08/09 03:04:35;;;;;;;5.30;2.60;;;;;;;19.54;100.00;99907.25;109226;1251;59431;-60
2023/08/09 03:07:03;;;;;;;5.70;3.10;;;;;;;19.60;100.00;99911.18;109313;1251;73507;-60
2023/08/09 03:09:32;;;;;;;4.90;2.60;;;;;;;19.79;100.00;99913.63;109249;1251;65637;-59
2023/08/09 03:11:59;;;;;;;4.40;2.70;;;;;;;20.01;100.00;99923.17;109325;1251;72539;-64
2023/08/09 03:14:27;;;;;;;7.30;2.80;;;;;;;20.26;100.00;99920.02;109199;1251;60868;-62
2023/08/09 03:16:56;;;;;;;6.90;2.50;;;;;;;20.46;100.00;99921.52;109301;1251;58799;-60
2023/08/09 03:19:23;;;;;;;4.00;2.30;;;;;;;20.55;100.00;99923.81;109346;1251;73245;-60
2023/08/09 03:21:52;;;;;;;5.90;2.60;;;;;;;20.69;100.00;99925.86;109281;1251;66111;-60
2023/08/09 03:24:20;;;;;;;7.00;3.20;;;;;;;20.91;100.00;99917.67;109297;1252;72729;-67
2023/08/09 03:26:48;;;;;;;4.30;2.20;;;;;;;21.21;100.00;99914.59;109215;1251;58846;-63
2023/08/09 03:29:18;;;;;;;3.70;2.30;;;;;;;21.68;100.00;99915.11;109257;1251;58619;-63
2023/08/09 03:31:46;;;;;;;5.50;2.40;;;;;;;22.18;100.00;99912.81;109319;1251;71986;-62
2023/08/09 03:34:14;;;;;;;4.40;2.10;;;;;;;22.80;100.00;99912.45;109226;1251;66880;-65
2023/08/09 03:36:44;;;;;;;4.80;3.10;;;;;;;23.49;100.00;99910.71;109321;1251;71579;-60
2023/08/09 03:39:12;;;;;;;5.30;2.60;;;;;;;24.19;100.00;99907.55;109333;1251;62245;-60
2023/08/09 03:41:40;;;;;;;8.50;2.40;;;;;;;24.68;100.00;99897.91;109296;1251;58852;-61
2023/08/09 03:44:09;;;;;;;3.70;2.70;;;;;;;24.89;100.00;99899.47;109235;1251;73051;-64
2023/08/09 03:46:37;;;;;;;4.40;2.60;;;;;;;25.23;100.00;99897.48;109282;1251;66297;-60
2023/08/09 03:49:05;;;;;;;4.50;2.80;;;;;;;25.63;100.00;99903.17;109219;1251;71450;-60
2023/08/09 03:51:37;;;;;;;3.70;1.90;;;;;;;25.93;100.00;99904.63;109341;1251;58840;-62
2023/08/09 03:54:05;;;;;;;7.30;2.40;;;;;;;26.29;100.00;99902.06;109326;1251;58828;-61
2023/08/09 03:56:33;;;;;;;5.10;2.20;;;;;;;26.30;100.00;99897.17;109205;1251;73139;-61
2023/08/09 03:59:00;;;;;;;3.20;2.00;;;;;;;26.38;100.00;99903.98;109335;1251;67028;-61
2023/08/09 04:01:29;;;;;;;5.40;2.30;;;;;;;26.85;100.00;99912.64;109244;1251;71853;-61
2023/08/09 04:03:56;;;;;;;3.40;2.20;;;;;;;27.43;100.00;99917.80;109330;1251;58859;-61
2023/08/09 04:06:24;;;;;;;8.40;2.10;;;;;;;27.62;100.00;99916.19;109264;1251;60142;-65
2023/08/09 04:08:52;;;;;;;3.40;2.20;;;;;;;27.62;100.00;99920.02;109355;1251;73081;-61
2023/08/09 04:11:20;;;;;;;3.40;2.30;;;;;;;28.06;100.00;99925.45;109351;1251;67171;-60
2023/08/09 04:13:47;;;;;;;3.40;2.10;;;;;;;28.71;100.00;99925.75;109295;1252;72768;-62
2023/08/09 04:16:15;;;;;;;4.20;1.70;;;;;;;29.46;100.00;99923.98;109260;1251;60122;-64
2023/08/09 04:18:42;;;;;;;4.10;1.80;;;;;;;30.04;100.00;99917.39;109237;1251;60733;-61
2023/08/09 04:21:10;;;;;;;3.20;1.40;;;;;;;30.32;96.55;99919.30;109362;1251;73320;-63
2023/08/09 04:23:38;;;;;;;3.00;1.60;;;;;;;30.30;95.80;99922.92;109341;1251;67429;-62
2023/08/09 04:26:05;;;;;;;3.10;1.70;;;;;;;30.63;94.73;99923.30;109326;1251;71599;-62
2023/08/09 04:28:33;;;;;;;3.90;1.90;;;;;;;31.23;89.95;99915.72;109255;1251;60100;-62
2023/08/09 04:31:03;;;;;;;2.80;1.50;;;;;;;31.80;81.30;99918.20;109364;1251;58825;-61
2023/08/09 04:33:31;;;;;;;5.10;1.80;;;;;;;32.29;73.11;99923.77;109353;1251;72590;-61
2023/08/09 04:35:59;;;;;;;3.90;1.70;;;;;;;32.59;66.85;99925.17;109341;1251;66184;-62
2023/08/09 04:38:28;;;;;;;2.40;1.60;;;;;;;32.78;63.67;99919.44;109252;1251;72954;-65
2023/08/09 04:40:57;;;;;;;3.80;2.20;;;;;;;32.96;60.32;99920.05;109379;1251;59541;-61
2023/08/09 04:43:24;;;;;;;3.10;1.50;;;;;;;33.12;60.40;99933.63;109329;1251;60031;-61
2023/08/09 04:45:53;;;;;;;2.80;1.50;;;;;;;33.53;57.20;99933.40;109331;1251;73845;-61
2023/08/09 04:48:21;;;;;;;3.20;1.60;;;;;;;33.96;53.45;99938.86;109300;1251;65803;-64
2023/08/09 04:50:49;;;;;;;5.70;1.80;;;;;;;34.18;48.47;99941.27;109307;1251;71442;-60
2023/08/09 04:53:19;;;;;;;3.80;2.00;;;;;;;33.98;47.32;99942.79;109319;1250;58690;-60
2023/08/09 04:55:46;;;;;;;6.40;2.20;;;;;;;33.74;48.18;99942.08;109383;1251;60122;-62
2023/08/09 04:58:14;;;;;;;4.40;1.80;;;;;;;33.63;48.78;99945.64;109297;1250;74129;-64
2023/08/09 05:00:41;;;;;;;3.40;1.80;;;;;;;33.67;49.26;99949.92;109291;1250;66804;-61
2023/08/09 05:03:09;;;;;;;3.50;1.90;;;;;;;34.00;50.92;99955.20;109329;1251;72786;-60
2023/08/09 05:05:37;;;;;;;4.60;1.90;;;;;;;34.81;49.05;99949.46;109299;1251;58201;-61
2023/08/09 05:08:05;;;;;;;4.80;1.70;;;;;;;35.68;44.89;99946.23;109332;1251;58271;-62
2023/08/09 05:10:33;;;;;;;2.90;2.00;;;;;;;36.42;41.25;99947.17;109279;1251;63692;-64
2023/08/09 05:13:01;;;;;;;3.20;2.10;;;;;;;36.76;38.32;99944.36;109338;1250;58699;-60
2023/08/09 05:15:31;;;;;;;4.20;2.80;;;;;;;36.63;37.70;99942.08;109299;1251;63215;-61
2023/08/09 05:17:59;;;;;;;3.80;2.10;;;;;;;36.63;38.44;99939.52;109264;1253;58144;-61
2023/08/09 05:20:26;;;;;;;4.10;2.30;;;;;;;37.08;37.81;99941.45;109315;1251;58486;-65
2023/08/09 05:22:54;;;;;;;3.10;2.00;;;;;;;37.36;36.67;99942.40;109336;1251;65058;-61
2023/08/09 05:25:22;;;;;;;4.40;2.50;;;;;;;37.57;36.49;99946.84;109350;1250;58251;-61
2023/08/09 05:27:49;;;;;;;3.80;2.10;;;;;;;37.88;35.56;99948.48;109346;1251;63996;-61
2023/08/09 05:30:20;;;;;;;6.20;1.90;;;;;;;38.11;34.32;99946.43;109344;1251;58791;-61
2023/08/09 05:32:48;;;;;;;7.30;2.30;;;;;;;38.15;34.11;99950.73;109334;1251;58103;-60
2023/08/09 05:35:16;;;;;;;4.50;2.90;;;;;;;38.19;33.51;99949.84;109332;1251;64978;-61
2023/08/09 05:37:43;;;;;;;3.40;1.90;;;;;;;38.19;33.92;99954.48;109369;1251;58260;-61
2023/08/09 05:40:13;;;;;;;5.30;2.10;;;;;;;38.52;34.16;99950.69;109314;1251;62523;-64
2023/08/09 05:42:41;;;;;;;4.80;2.10;;;;;;;39.20;32.90;99946.00;109295;1251;59799;-64
2023/08/09 05:45:09;;;;;;;4.10;2.20;;;;;;;39.72;31.31;99948.11;109326;1251;58488;-61
2023/08/09 05:47:37;;;;;;;2.70;2.00;;;;;;;40.02;30.79;99951.80;109345;1251;64927;-62
2023/08/09 05:50:05;;;;;;;7.60;2.60;;;;;;;40.29;30.00;99953.44;109327;1251;58595;-62
2023/08/09 05:52:34;;;;;;;5.60;2.30;;;;;;;40.31;29.71;99953.42;109295;1252;62569;-61
2023/08/09 05:55:05;;;;;;;4.10;3.30;;;;;;;40.25;29.83;99948.68;109227;1252;58701;-62
2023/08/09 05:57:33;;;;;;;3.30;2.80;;;;;;;40.02;29.73;99944.92;109362;1251;58062;-60
2023/08/09 06:00:01;;;;;;;4.00;2.90;;;;;;;39.35;30.38;99941.59;109371;1251;65049;-60
2023/08/09 06:02:33;;;;;;;4.20;2.50;;;;;;;38.86;31.51;99940.55;109396;1251;58572;-61
2023/08/09 06:05:01;;;;;;;2.40;2.10;;;;;;;38.89;31.98;99942.14;109276;1252;62475;-61
2023/08/09 06:07:29;;;;;;;3.50;2.20;;;;;;;38.96;31.48;99947.39;109279;1251;58624;-60
2023/08/09 06:09:57;;;;;;;6.60;2.30;;;;;;;38.68;31.59;99954.45;109315;1251;58631;-61
2023/08/09 06:12:24;;;;;;;4.90;2.50;;;;;;;38.41;31.65;99952.89;109283;1253;63712;-64
2023/08/09 06:14:52;;;;;;;3.10;2.20;;;;;;;38.21;32.15;99948.67;109376;1250;58743;-64
2023/08/09 06:17:20;;;;;;;4.00;2.10;;;;;;;38.33;32.50;99951.73;109270;1251;63794;-61
2023/08/09 06:19:47;;;;;;;3.80;2.40;;;;;;;38.38;32.65;99954.44;109323;1251;58513;-61
2023/08/09 06:22:15;;;;;;;3.90;2.30;;;;;;;38.49;32.47;99953.48;109337;1251;58489;-61
2023/08/09 06:24:42;;;;;;;2.50;1.90;;;;;;;38.43;32.39;99958.58;109290;1251;64984;-64
2023/08/09 06:27:10;;;;;;;3.20;2.40;;;;;;;38.11;32.60;99961.42;109349;1251;58186;-60
2023/08/09 06:29:37;;;;;;;2.50;1.90;;;;;;;37.75;33.72;99970.96;109318;1252;63828;-60
2023/08/09 06:32:05;;;;;;;6.60;2.60;;;;;;;37.72;33.91;99975.36;109350;1251;58463;-61
2023/08/09 06:34:33;;;;;;;4.00;1.80;;;;;;;37.57;34.27;99980.18;109339;1251;58545;-61
2023/08/09 06:37:01;;;;;;;2.80;1.80;;;;;;;37.49;34.74;99980.09;109254;1251;63751;-62
2023/08/09 06:39:29;;;;;;;5.70;2.10;;;;;;;37.76;34.71;99983.86;109322;1251;58181;-61
2023/08/09 06:41:56;;;;;;;5.40;1.60;;;;;;;37.91;34.15;99977.83;109314;1251;63749;-60
2023/08/09 06:44:24;;;;;;;4.00;2.40;;;;;;;38.00;33.95;99976.81;109282;1250;58188;-61
2023/08/09 06:46:53;;;;;;;6.80;3.00;;;;;;;38.03;34.01;99980.72;109322;1252;58451;-64
2023/08/09 06:49:22;;;;;;;2.20;1.60;;;;;;;38.25;33.26;99983.09;109351;1251;63720;-61
2023/08/09 06:51:50;;;;;;;5.90;2.30;;;;;;;38.66;32.55;99982.63;109375;1251;58240;-61
2023/08/09 06:54:18;;;;;;;3.60;1.80;;;;;;;39.03;31.70;99979.96;109332;1252;63768;-62
2023/08/09 06:56:45;;;;;;;6.30;2.00;;;;;;;39.32;31.46;99975.81;109302;1252;58638;-60
2023/08/09 06:59:13;;;;;;;3.10;2.00;;;;;;;39.62;31.23;99978.56;109327;1251;58128;-61
2023/08/09 07:01:41;;;;;;;2.90;1.70;;;;;;;39.90;30.57;99979.55;109326;1252;65044;-61
2023/08/09 07:04:09;;;;;;;2.90;2.00;;;;;;;39.94;30.08;99978.14;109354;1251;58643;-60
2023/08/09 07:06:37;;;;;;;3.30;1.90;;;;;;;40.01;30.17;99979.48;109287;1251;62918;-63
2023/08/09 07:09:05;;;;;;;3.00;2.00;;;;;;;40.10;29.99;99981.50;109309;1251;58662;-61
2023/08/09 07:11:33;;;;;;;9.00;2.40;;;;;;;40.10;29.94;99986.81;109293;1251;61151;-62
2023/08/09 07:14:02;;;;;;;4.10;2.20;;;;;;;40.11;30.05;99984.02;109343;1250;65032;-60
2023/08/09 07:16:29;;;;;;;5.50;2.60;;;;;;;40.11;29.93;99983.16;109304;1251;58605;-64
2023/08/09 07:18:57;;;;;;;25.70;4.80;;;;;;;40.12;29.95;99987.69;109373;1251;70878;-61
2023/08/09 07:21:27;;;;;;;4.30;1.80;;;;;;;40.28;29.89;99988.48;109255;1252;58164;-61
2023/08/09 07:23:56;;;;;;;2.80;2.10;;;;;;;40.35;29.41;99990.02;109364;1251;58451;-60
2023/08/09 07:26:25;;;;;;;2.20;1.90;;;;;;;40.22;29.52;99989.49;109278;1251;65010;-64
2023/08/09 07:28:53;;;;;;;4.00;2.40;;;;;;;40.22;30.00;99991.98;109376;1251;58222;-60
2023/08/09 07:31:21;;;;;;;4.80;2.50;;;;;;;40.33;29.88;99990.19;109251;1251;63761;-61
2023/08/09 07:33:49;;;;;;;5.00;1.90;;;;;;;40.37;29.68;99990.17;109318;1251;58171;-61
2023/08/09 07:36:17;;;;;;;3.60;2.00;;;;;;;40.31;29.66;99991.75;109340;1251;58063;-64
2023/08/09 07:38:45;;;;;;;5.60;2.00;;;;;;;40.21;29.47;99994.09;109287;1256;73773;-62
2023/08/09 07:41:12;;;;;;;2.60;2.00;;;;;;;40.05;29.68;99991.81;109334;1251;58521;-64
2023/08/09 07:43:40;;;;;;;3.40;2.40;;;;;;;39.91;30.09;99989.30;109376;1251;63813;-61
2023/08/09 07:46:08;;;;;;;3.20;2.30;;;;;;;39.88;30.29;99989.91;109329;1251;58705;-63
2023/08/09 07:48:36;;;;;;;2.50;2.10;;;;;;;39.94;30.43;99992.03;109340;1251;58117;-60
2023/08/09 07:51:06;;;;;;;2.50;2.00;;;;;;;39.97;30.14;99993.27;109371;1251;65220;-60
2023/08/09 07:53:33;;;;;;;5.30;2.30;;;;;;;39.82;29.99;99994.90;109282;1251;58148;-61
2023/08/09 07:56:01;;;;;;;4.40;2.20;;;;;;;39.70;30.23;100001.10;109369;1251;63150;-64
2023/08/09 07:58:29;;;;;;;3.10;2.30;;;;;;;39.61;30.51;99998.18;109314;1251;58624;-60
2023/08/09 08:00:58;;;;;;;2.50;1.70;;;;;;;39.51;30.84;100002.38;109374;1251;58199;-62
2023/08/09 08:03:25;;;;;;;2.80;1.70;;;;;;;39.50;30.42;100002.45;109307;1251;65069;-61
2023/08/09 08:05:53;;;;;;;4.00;1.70;;;;;;;39.55;30.44;100002.38;109365;1251;58668;-60
2023/08/09 08:08:21;;;;;;;4.80;1.80;;;;;;;39.58;30.68;100005.34;109344;1255;64374;-60
2023/08/09 08:10:48;;;;;;;4.80;1.80;;;;;;;39.58;31.01;99999.27;109339;1251;58876;-61
2023/08/09 08:13:16;;;;;;;4.40;2.00;;;;;;;39.53;30.83;100003.85;109280;1251;58246;-62
2023/08/09 08:15:43;;;;;;;3.70;1.80;;;;;;;39.37;30.34;100003.48;109411;1251;63732;-60
2023/08/09 08:18:11;;;;;;;4.50;2.10;;;;;;;39.22;30.50;100009.02;109318;1251;58281;-63
2023/08/09 08:20:39;;;;;;;5.00;2.30;;;;;;;39.07;30.62;100018.06;109312;1253;62671;-61
2023/08/09 08:23:07;;;;;;;4.70;1.80;;;;;;;38.92;30.94;100017.29;109321;1251;58760;-61
2023/08/09 08:25:34;;;;;;;3.40;1.80;;;;;;;38.84;31.14;100016.48;109355;1251;58242;-60
2023/08/09 08:28:03;;;;;;;2.50;1.40;;;;;;;38.75;31.67;100019.66;109416;1251;63701;-65
2023/08/09 08:30:31;;;;;;;3.70;1.40;;;;;;;38.73;31.68;100020.04;109362;1251;58580;-61
2023/08/09 08:32:58;;;;;;;3.60;1.50;;;;;;;38.73;31.89;100025.32;109301;1253;63878;-64
2023/08/09 08:35:33;;;;;;;5.90;1.60;;;;;;;38.75;31.77;100027.44;109361;1251;58418;-60
2023/08/09 08:38:01;;;;;;;2.20;1.40;;;;;;;38.68;32.12;100026.05;109357;1251;58269;-64
2023/08/09 08:40:31;;;;;;;2.60;1.80;;;;;;;38.59;32.28;100025.38;109334;1251;64958;-60
2023/08/09 08:42:59;;;;;;;3.10;1.50;;;;;;;38.54;32.47;100028.78;109318;1251;58538;-64
2023/08/09 08:45:26;;;;;;;4.30;1.60;;;;;;;38.50;32.39;100032.48;109368;1251;71838;-61
2023/08/09 08:47:54;;;;;;;3.20;1.80;;;;;;;38.32;32.73;100032.94;109353;1251;59257;-60
2023/08/09 08:50:25;;;;;;;3.10;1.40;;;;;;;38.17;33.19;100029.52;109323;1253;58531;-60
2023/08/09 08:52:52;;;;;;;5.30;1.50;;;;;;;38.19;33.96;100030.48;109291;1251;65001;-62
2023/08/09 08:55:20;;;;;;;3.80;1.60;;;;;;;38.35;33.97;100031.41;109116;1251;58759;-61
2023/08/09 08:57:48;;;;;;;3.80;2.10;;;;;;;38.46;33.89;100033.29;109326;1252;63827;-60
2023/08/09 09:00:16;;;;;;;3.10;1.20;;;;;;;38.45;33.49;100035.16;109346;1252;58117;-63
2023/08/09 09:02:53;;;;;;;3.40;1.80;;;;;;;38.32;33.66;100034.02;109313;1252;58700;-62
2023/08/09 09:05:21;;;;;;;3.10;1.40;;;;;;;38.23;34.03;100030.43;109242;1251;63722;-61
2023/08/09 09:07:50;;;;;;;2.40;1.60;;;;;;;38.22;34.41;100031.52;109408;1251;58183;-60
2023/08/09 09:10:19;;;;;;;2.30;1.30;;;;;;;38.24;34.32;100036.98;109287;1253;62590;-62
2023/08/09 09:12:51;;;;;;;2.20;1.40;;;;;;;38.15;34.85;100036.52;109333;1251;58558;-64
2023/08/09 09:15:19;;;;;;;2.20;1.50;;;;;;;38.10;34.65;100041.59;109401;1251;58187;-61
2023/08/09 09:17:48;;;;;;;4.80;1.80;;;;;;;38.05;34.48;100044.82;109396;1250;65053;-60
2023/08/09 09:20:24;;;;;;;4.10;1.80;;;;;;;38.01;34.77;100050.36;109375;1251;58349;-61
2023/08/09 09:22:53;;;;;;;5.20;2.00;;;;;;;37.90;35.03;100049.80;109310;1251;63798;-61
2023/08/09 09:25:22;;;;;;;3.70;1.60;;;;;;;37.81;34.99;100047.11;109385;1253;58654;-60
2023/08/09 09:27:55;;;;;;;3.20;1.50;;;;;;;37.87;34.92;100044.86;109315;1251;58209;-64
2023/08/09 09:30:24;;;;;;;3.10;1.90;;;;;;;37.91;34.23;100043.83;109373;1251;65034;-65
2023/08/09 09:33:04;;;;;;;5.10;1.40;;;;;;;37.87;34.11;100045.23;109417;1251;58295;-62
2023/08/09 09:35:33;;;;;;;;;;;;;;;37.76;33.96;100045.04;109383;1251;63856;-62
2023/08/09 09:38:03;;;;;;;3.20;1.30;;;;;;;37.72;34.59;100045.23;109362;1253;58332;-60
2023/08/09 09:40:34;;;;;;;4.40;1.60;;;;;;;37.84;34.77;100045.21;109320;1251;59209;-65
2023/08/09 09:43:06;;;;;;;3.60;1.90;;;;;;;37.97;34.10;100046.13;109344;1251;65095;-61
2023/08/09 09:45:36;;;;;;;2.80;1.30;;;;;;;37.99;33.94;100048.25;109348;1251;58476;-62
2023/08/09 09:48:06;;;;;;;4.60;1.40;;;;;;;37.92;34.42;100050.61;109384;1252;63744;-60
2023/08/09 09:50:34;;;;;;;3.90;1.30;;;;;;;37.95;34.89;100049.77;109068;1251;58374;-61
2023/08/09 09:53:02;;;;;;;1.50;1.10;;;;;;;38.02;33.98;100054.89;109306;1251;58723;-62
2023/08/09 09:55:32;;;;;;;2.60;1.20;;;;;;;38.09;33.43;100056.67;109159;1251;64977;-61
2023/08/09 09:58:00;;;;;;;2.30;1.40;;;;;;;38.22;33.48;100054.23;109432;1251;58585;-60
2023/08/09 10:00:28;;;;;;;3.00;1.60;;;;;;;38.41;33.29;100056.74;109358;1252;63839;-61
2023/08/09 10:02:56;;;;;;;4.00;1.80;;;;;;;38.49;32.33;100053.48;109361;1251;58538;-65
2023/08/09 10:05:37;;;;;;;3.20;2.00;;;;;;;38.36;32.07;100056.17;109357;1252;58276;-60
2023/08/09 10:08:09;;;;;;;2.20;1.00;;;;;;;38.21;32.10;100057.55;109400;1251;63863;-64
2023/08/09 10:10:42;;;;;;;2.30;1.50;;;;;;;38.10;32.30;100055.83;109372;1251;58720;-65
2023/08/09 10:13:22;;;;;;;4.40;1.20;;;;;;;38.15;32.42;100056.27;109423;1251;63808;-60
2023/08/09 10:15:51;;;;;;;2.30;1.40;;;;;;;38.20;32.75;100055.23;109084;1251;58415;-65
2023/08/09 10:18:34;;;;;;;5.00;1.90;;;;;;;38.21;33.19;100050.80;109315;1252;58173;-63
2023/08/09 10:21:01;;;;;;;2.10;1.20;;;;;;;38.28;33.28;100051.02;109350;1251;65046;-61
2023/08/09 10:23:29;;;;;;;3.70;1.50;;;;;;;38.45;33.00;100054.69;109400;1251;58233;-64
2023/08/09 10:25:57;;;;;;;2.90;1.30;;;;;;;38.62;31.63;100057.55;109327;1253;62527;-61
2023/08/09 10:28:49;;;;;;;3.00;1.50;;;;;;;38.45;31.30;100057.32;109301;1251;58215;-62
2023/08/09 10:31:47;;;;;;;2.40;1.20;;;;;;;37.97;32.17;100056.85;109378;1251;58239;-62
2023/08/09 10:34:16;;;;;;;5.00;2.00;;;;;;;37.89;33.68;100054.59;109371;1251;64990;-61
2023/08/09 10:36:51;;;;;;;3.50;1.20;;;;;;;38.08;33.34;100058.75;109376;1251;58262;-61
2023/08/09 10:39:18;;;;;;;2.00;1.20;;;;;;;38.17;32.81;100051.77;109334;1251;64207;-65
2023/08/09 10:42:06;;;;;;;3.30;1.60;;;;;;;38.10;33.45;100057.84;109310;1253;58210;-61
2023/08/09 10:44:44;;;;;;;2.50;1.40;;;;;;;38.04;33.67;100062.30;109383;1253;58586;-61
2023/08/09 10:47:14;;;;;;;2.10;1.10;;;;;;;37.92;33.92;100065.59;109317;1251;63755;-62
2023/08/09 10:49:48;;;;;;;2.30;1.30;;;;;;;37.81;34.23;100066.70;109390;1251;58760;-61
2023/08/09 10:52:17;;;;;;;3.00;1.20;;;;;;;37.73;34.88;100065.06;109393;1252;63749;-61
2023/08/09 10:54:49;;;;;;;2.30;1.10;;;;;;;37.73;35.10;100063.18;109281;1251;59194;-65
2023/08/09 10:57:17;;;;;;;1.40;0.90;;;;;;;37.87;34.61;100064.98;109422;1253;58091;-61
2023/08/09 10:59:46;;;;;;;2.90;1.10;;;;;;;38.07;33.70;100060.95;109439;1251;64984;-61
2023/08/09 11:02:15;;;;;;;11.70;2.00;;;;;;;38.07;33.02;100060.55;109169;1251;58267;-61
2023/08/09 11:04:43;;;;;;;7.90;1.30;;;;;;;37.91;33.17;100062.85;109327;1252;63730;-66
2023/08/09 11:07:20;;;;;;;3.60;1.10;;;;;;;37.79;33.12;100058.59;109345;1252;59088;-62
2023/08/09 11:09:47;;;;;;;6.90;1.30;;;;;;;37.72;33.19;100058.05;109427;1251;58120;-61
2023/08/09 11:12:17;;;;;;;3.20;1.40;;;;;;;37.71;33.23;100063.87;109372;1253;63836;-62
2023/08/09 11:14:44;;;;;;;1.90;1.10;;;;;;;37.71;33.17;100059.28;109341;1253;58511;-64
2023/08/09 11:17:13;;;;;;;4.20;1.60;;;;;;;37.72;33.42;100063.27;109345;1253;64271;-61
2023/08/09 11:19:40;;;;;;;2.10;1.40;;;;;;;37.80;32.46;100065.98;109406;1251;58607;-61
2023/08/09 11:22:09;;;;;;;2.50;1.50;;;;;;;37.77;32.34;100065.73;109425;1251;58658;-62
2023/08/09 11:24:36;;;;;;;2.90;1.40;;;;;;;37.73;32.59;100063.02;109072;1251;64954;-65
2023/08/09 11:27:04;;;;;;;6.60;2.90;;;;;;;37.72;32.37;100060.30;109423;1251;58749;-62
2023/08/09 11:29:33;;;;;;;5.50;1.60;;;;;;;37.68;32.06;100065.85;109356;1251;72709;-62
2023/08/09 11:32:01;;;;;;;4.20;2.30;;;;;;;37.65;31.75;100068.60;109388;1251;59729;-61
2023/08/09 11:34:29;;;;;;;2.60;1.40;;;;;;;37.60;31.40;100066.15;109345;1253;58481;-63